createdAt,value
2019-03-26T00:00:33.314Z,37.20
2019-03-26T00:03:03.041Z,45.07
2019-03-26T00:05:32.490Z,51.50
2019-03-26T00:08:01.952Z,53.93
2019-03-26T00:10:31.408Z,51.43
2019-03-26T00:13:00.875Z,48.70
2019-03-26T00:15:30.339Z,47.43
2019-03-26T00:17:59.801Z,53.10
2019-03-26T00:20:29.332Z,52.57
2019-03-26T00:22:58.823Z,57.00
2019-03-26T00:25:28.287Z,48.90
2019-03-26T00:27:57.768Z,53.60
2019-03-26T00:30:27.616Z,47.13
2019-03-26T00:32:57.065Z,44.80
2019-03-26T00:35:26.539Z,48.23
2019-03-26T00:37:56.352Z,46.90
2019-03-26T00:40:25.831Z,42.57
2019-03-26T00:42:55.665Z,54.07
2019-03-26T00:45:25.120Z,55.60
2019-03-26T00:47:54.584Z,47.10
2019-03-26T00:50:24.052Z,50.70
2019-03-26T00:52:54.786Z,47.43
2019-03-26T00:55:24.155Z,50.77
2019-03-26T00:57:53.789Z,53.87
2019-03-26T01:00:29.088Z,49.90
2019-03-26T01:02:58.627Z,53.40
2019-03-26T01:05:28.225Z,55.87
2019-03-26T01:07:59.296Z,46.37
2019-03-26T01:10:28.799Z,55.97
2019-03-26T01:12:58.273Z,48.77
2019-03-26T01:15:27.747Z,51.57
2019-03-26T01:17:57.191Z,47.83
2019-03-26T01:20:26.664Z,54.33
2019-03-26T01:22:56.142Z,55.73
2019-03-26T01:25:25.623Z,45.47
2019-03-26T01:27:55.079Z,51.20
2019-03-26T01:30:24.542Z,52.07
2019-03-26T01:32:54.001Z,42.93
2019-03-26T01:35:23.466Z,55.37
2019-03-26T01:37:52.948Z,43.07
2019-03-26T01:40:22.402Z,43.30
2019-03-26T01:42:51.846Z,46.73
2019-03-26T01:45:21.313Z,44.27
2019-03-26T01:47:50.762Z,46.20
2019-03-26T01:50:20.216Z,40.70
2019-03-26T01:52:49.916Z,46.03
2019-03-26T01:55:19.369Z,38.57
2019-03-26T01:57:48.817Z,37.30
2019-03-26T02:00:18.292Z,42.20
2019-03-26T02:02:47.735Z,34.60
2019-03-26T02:05:17.573Z,35.83
2019-03-26T02:07:47.596Z,36.10
2019-03-26T02:10:17.141Z,36.90
2019-03-26T02:12:48.630Z,40.87
2019-03-26T02:15:28.711Z,37.13
2019-03-26T02:17:59.072Z,37.23
2019-03-26T02:20:29.005Z,35.83
2019-03-26T02:22:58.976Z,35.27
2019-03-26T02:25:28.955Z,39.50
2019-03-26T02:27:58.881Z,46.93
2019-03-26T02:30:29.218Z,39.23
2019-03-26T02:32:59.499Z,43.37
2019-03-26T02:35:29.026Z,41.53
2019-03-26T02:37:58.754Z,40.07
2019-03-26T02:40:28.301Z,43.87
2019-03-26T02:42:57.749Z,44.33
2019-03-26T02:45:27.287Z,43.40
2019-03-26T02:47:57.016Z,44.00
2019-03-26T02:50:26.550Z,43.83
2019-03-26T02:52:56.000Z,46.07
2019-03-26T02:55:25.463Z,47.90
2019-03-26T02:57:54.916Z,47.23
2019-03-26T03:00:24.385Z,48.87
2019-03-26T03:02:53.849Z,45.17
2019-03-26T03:05:35.303Z,45.90
2019-03-26T03:07:54.491Z,48.47
2019-03-26T03:10:24.106Z,50.27
2019-03-26T03:12:53.559Z,47.60
2019-03-26T03:15:23.030Z,42.90
2019-03-26T03:17:52.500Z,42.90
2019-03-26T03:20:22.339Z,47.33
2019-03-26T03:22:51.789Z,42.20
2019-03-26T03:25:21.268Z,39.67
2019-03-26T03:27:51.051Z,40.13
2019-03-26T03:30:20.565Z,38.77
2019-03-26T03:32:50.058Z,42.43
2019-03-26T03:35:19.580Z,39.53
2019-03-26T03:37:49.078Z,37.97
2019-03-26T03:40:18.575Z,36.27
2019-03-26T03:42:48.392Z,35.87
2019-03-26T03:45:21.044Z,39.20
2019-03-26T03:47:50.670Z,34.43
2019-03-26T03:50:20.486Z,35.50
2019-03-26T03:52:50.318Z,37.93
2019-03-26T03:55:19.803Z,40.53
2019-03-26T03:57:52.785Z,33.60
2019-03-26T04:00:35.728Z,36.53
2019-03-26T04:03:08.108Z,38.37
2019-03-26T04:05:37.655Z,43.37
2019-03-26T04:08:07.107Z,43.60
2019-03-26T04:10:36.927Z,41.10
2019-03-26T04:13:06.566Z,43.07
2019-03-26T04:15:36.321Z,37.70
2019-03-26T04:18:05.767Z,36.37
2019-03-26T04:20:35.246Z,37.73
2019-03-26T04:23:04.700Z,39.10
2019-03-26T04:25:34.864Z,37.80
2019-03-26T04:28:04.486Z,36.00
2019-03-26T04:30:34.047Z,35.70
2019-03-26T04:33:23.161Z,39.67
2019-03-26T04:35:52.648Z,40.97
2019-03-26T04:38:22.096Z,30.03
2019-03-26T04:40:51.576Z,36.13
2019-03-26T04:43:21.034Z,38.73
2019-03-26T04:45:50.496Z,38.83
2019-03-26T04:48:19.944Z,43.90
2019-03-26T04:50:49.416Z,39.37
2019-03-26T04:53:18.874Z,43.30
2019-03-26T04:55:48.451Z,44.30
2019-03-26T04:58:18.207Z,42.57
2019-03-26T05:00:47.924Z,45.83
2019-03-26T05:03:17.367Z,46.23
2019-03-26T05:05:46.851Z,42.13
2019-03-26T05:08:16.568Z,43.33
2019-03-26T05:10:49.053Z,41.43
2019-03-26T05:13:17.206Z,36.63
2019-03-26T05:15:46.716Z,42.40
2019-03-26T05:18:16.178Z,43.67
2019-03-26T05:20:45.640Z,38.80
2019-03-26T05:23:15.110Z,41.57
2019-03-26T05:25:44.575Z,42.63
2019-03-26T05:28:14.041Z,40.37
2019-03-26T05:30:43.635Z,42.10
2019-03-26T05:33:13.092Z,40.37
2019-03-26T05:35:42.570Z,39.47
2019-03-26T05:38:12.041Z,42.60
2019-03-26T05:40:41.518Z,43.80
2019-03-26T05:43:11.270Z,34.90
2019-03-26T05:45:40.722Z,40.87
2019-03-26T05:48:10.217Z,37.23
2019-03-26T05:50:41.573Z,32.27
2019-03-26T05:53:11.120Z,44.03
2019-03-26T05:55:40.575Z,40.20
2019-03-26T05:58:10.116Z,28.30
2019-03-26T06:00:39.609Z,35.37
2019-03-26T06:03:09.107Z,26.13
2019-03-26T06:05:38.858Z,26.67
2019-03-26T06:08:08.339Z,34.60
2019-03-26T06:10:37.781Z,29.43
2019-03-26T06:13:07.590Z,32.37
2019-03-26T06:15:37.394Z,25.17
2019-03-26T06:18:07.041Z,25.63
2019-03-26T06:20:36.518Z,22.73
2019-03-26T06:23:05.968Z,25.43
2019-03-26T06:25:35.448Z,30.33
2019-03-26T06:28:04.916Z,27.27
2019-03-26T06:30:34.652Z,26.93
2019-03-26T06:33:04.225Z,28.57
2019-03-26T06:35:33.665Z,29.37
2019-03-26T06:38:03.143Z,33.70
2019-03-26T06:40:32.591Z,32.53
2019-03-26T06:43:02.375Z,30.23
2019-03-26T06:45:32.187Z,30.50
2019-03-26T06:48:04.225Z,28.30
2019-03-26T06:50:32.826Z,29.40
2019-03-26T06:53:02.370Z,29.80
2019-03-26T06:55:31.822Z,28.07
2019-03-26T06:58:01.290Z,23.47
2019-03-26T07:00:32.283Z,28.37
2019-03-26T07:03:03.011Z,27.57
2019-03-26T07:05:32.713Z,27.47
2019-03-26T07:08:02.180Z,25.70
2019-03-26T07:10:31.811Z,24.30
2019-03-26T07:13:01.288Z,25.30
2019-03-26T07:15:31.084Z,24.10
2019-03-26T07:18:00.576Z,20.87
2019-03-26T07:20:30.065Z,23.63
2019-03-26T07:22:59.539Z,25.23
2019-03-26T07:25:29.325Z,25.67
2019-03-26T07:27:58.834Z,29.07
2019-03-26T07:30:44.841Z,29.67
2019-03-26T07:33:14.319Z,29.50
2019-03-26T07:35:43.783Z,30.27
2019-03-26T07:38:13.528Z,32.23
2019-03-26T07:40:42.980Z,29.13
2019-03-26T07:43:12.447Z,44.70
2019-03-26T07:45:41.904Z,37.40
2019-03-26T07:48:11.434Z,38.57
2019-03-26T07:50:40.872Z,35.47
2019-03-26T07:53:11.650Z,41.40
2019-03-26T07:55:43.844Z,36.10
2019-03-26T07:58:12.561Z,42.97
2019-03-26T08:00:42.009Z,37.30
2019-03-26T08:03:11.500Z,38.53
2019-03-26T08:05:40.968Z,36.60
2019-03-26T08:08:10.428Z,47.53
2019-03-26T08:10:39.889Z,38.47
2019-03-26T08:13:09.356Z,40.83
2019-03-26T08:15:38.955Z,50.57
2019-03-26T08:18:08.368Z,43.03
2019-03-26T08:20:38.092Z,42.30
2019-03-26T08:23:07.566Z,40.53
2019-03-26T08:25:37.034Z,47.13
2019-03-26T08:28:06.490Z,42.73
2019-03-26T08:30:36.330Z,46.50
2019-03-26T08:33:05.859Z,42.33
2019-03-26T08:35:35.332Z,37.67
2019-03-26T08:38:12.497Z,42.53
2019-03-26T08:40:35.974Z,49.90
2019-03-26T08:43:05.467Z,42.83
2019-03-26T08:45:34.917Z,48.97
2019-03-26T08:48:04.819Z,40.00
2019-03-26T08:50:34.292Z,51.77
2019-03-26T08:53:03.750Z,43.13
2019-03-26T08:55:33.206Z,50.33
2019-03-26T08:58:02.682Z,43.47
2019-03-26T09:00:32.386Z,48.50
2019-03-26T09:03:01.948Z,44.87
2019-03-26T09:05:31.404Z,54.60
2019-03-26T09:08:00.931Z,48.80
2019-03-26T09:10:30.552Z,37.13
2019-03-26T09:13:00.087Z,38.40
2019-03-26T09:15:29.563Z,31.37
2019-03-26T09:17:59.064Z,29.30
2019-03-26T09:20:28.480Z,35.10
2019-03-26T09:22:58.111Z,40.27
2019-03-26T09:25:27.575Z,29.33
2019-03-26T09:27:57.376Z,26.13
2019-03-26T09:30:27.037Z,26.43
2019-03-26T09:32:56.531Z,25.73
2019-03-26T09:35:25.999Z,23.27
2019-03-26T09:37:55.815Z,24.43
2019-03-26T09:40:25.304Z,30.37
2019-03-26T09:42:54.773Z,23.20
2019-03-26T09:45:24.225Z,30.43
2019-03-26T09:47:54.043Z,22.37
2019-03-26T09:50:31.698Z,23.57
2019-03-26T09:53:01.197Z,20.50
2019-03-26T09:55:30.659Z,31.43
2019-03-26T09:58:00.125Z,23.00
2019-03-26T10:00:29.659Z,20.43
2019-03-26T10:02:59.079Z,27.60
2019-03-26T10:05:28.987Z,24.27
2019-03-26T10:07:58.454Z,26.87
2019-03-26T10:10:27.914Z,22.17
2019-03-26T10:12:57.375Z,18.57
2019-03-26T10:15:26.844Z,25.00
2019-03-26T10:17:56.299Z,22.93
2019-03-26T10:20:25.781Z,20.10
2019-03-26T10:22:55.300Z,19.10
2019-03-26T10:25:24.793Z,19.87
2019-03-26T10:27:54.573Z,18.07
2019-03-26T10:30:37.729Z,17.60
2019-03-26T10:33:07.710Z,16.37
2019-03-26T10:35:37.246Z,18.40
2019-03-26T10:38:06.954Z,18.83
2019-03-26T10:40:37.850Z,21.03
2019-03-26T10:43:07.476Z,12.80
2019-03-26T10:45:37.127Z,16.30
2019-03-26T10:48:06.756Z,13.43
2019-03-26T10:50:36.210Z,12.60
2019-03-26T10:53:05.652Z,15.23
2019-03-26T10:55:35.103Z,16.67
2019-03-26T10:58:04.888Z,16.53
2019-03-26T11:00:34.354Z,12.73
2019-03-26T11:03:03.825Z,13.73
2019-03-26T11:05:33.298Z,13.10
2019-03-26T11:08:02.756Z,11.87
2019-03-26T11:10:32.369Z,7.13
2019-03-26T11:13:01.816Z,16.63
2019-03-26T11:15:31.274Z,12.33
2019-03-26T11:18:00.716Z,8.50
2019-03-26T11:20:30.557Z,10.33
2019-03-26T11:23:00.105Z,10.73
2019-03-26T11:25:29.579Z,14.10
2019-03-26T11:27:59.013Z,9.27
2019-03-26T11:30:28.799Z,9.30
2019-03-26T11:32:58.261Z,7.23
2019-03-26T11:35:27.746Z,7.63
2019-03-26T11:37:57.226Z,6.97
2019-03-26T11:40:26.698Z,5.77
2019-03-26T11:42:56.127Z,7.60
2019-03-26T11:45:25.766Z,8.67
2019-03-26T11:47:55.211Z,7.37
2019-03-26T11:50:24.659Z,11.20
2019-03-26T11:52:54.164Z,7.13
2019-03-26T11:55:23.783Z,10.63
2019-03-26T11:57:53.671Z,7.83
2019-03-26T12:00:25.053Z,10.67
2019-03-26T12:02:54.558Z,11.30
2019-03-26T12:05:24.019Z,9.53
2019-03-26T12:07:53.455Z,6.17
2019-03-26T12:10:22.934Z,7.67
2019-03-26T12:12:52.373Z,7.07
2019-03-26T12:15:21.868Z,11.60
2019-03-26T12:17:51.295Z,7.40
2019-03-26T12:20:20.758Z,13.37
2019-03-26T12:22:50.388Z,11.27
2019-03-26T12:25:19.856Z,14.57
2019-03-26T12:27:49.316Z,13.00
2019-03-26T12:30:21.955Z,12.03
2019-03-26T12:32:51.399Z,14.57
2019-03-26T12:35:30.259Z,14.57
2019-03-26T12:37:59.709Z,13.67
2019-03-26T12:40:29.180Z,13.80
2019-03-26T12:42:58.615Z,15.83
2019-03-26T12:45:28.095Z,14.23
2019-03-26T12:47:57.559Z,13.37
2019-03-26T12:50:27.277Z,11.83
2019-03-26T12:52:56.719Z,9.17
2019-03-26T12:55:26.192Z,11.13
2019-03-26T12:57:55.647Z,10.20
2019-03-26T13:00:32.425Z,9.40
2019-03-26T13:03:11.553Z,13.10
2019-03-26T13:05:47.280Z,12.03
2019-03-26T13:08:23.989Z,12.20
2019-03-26T13:11:04.901Z,10.50
2019-03-26T13:13:39.319Z,7.23
2019-03-26T13:16:18.413Z,12.90
2019-03-26T13:18:51.658Z,15.57
2019-03-26T13:21:31.820Z,9.10
2019-03-26T13:24:11.637Z,11.87
2019-03-26T13:26:48.838Z,11.83
2019-03-26T13:29:27.450Z,8.80
2019-03-26T13:32:05.957Z,14.20
2019-03-26T13:34:35.162Z,12.90
2019-03-26T13:37:13.337Z,9.17
2019-03-26T13:39:50.960Z,11.50
2019-03-26T13:42:28.401Z,10.33
2019-03-26T13:45:17.940Z,11.60
2019-03-26T13:48:01.188Z,12.33
2019-03-26T13:50:34.298Z,11.53
2019-03-26T13:53:20.127Z,13.20
2019-03-26T13:56:19.432Z,10.43
2019-03-26T13:58:59.817Z,9.37
2019-03-26T14:04:31.486Z,9.27
2019-03-26T14:07:21.600Z,8.20
2019-03-26T14:09:58.236Z,10.53
2019-03-26T14:12:43.813Z,7.83
2019-03-26T14:15:37.187Z,12.70
2019-03-26T14:18:12.808Z,10.27
2019-03-26T14:20:42.898Z,14.03
2019-03-26T14:23:12.560Z,12.17
2019-03-26T14:25:43.993Z,17.73
2019-03-26T14:28:21.311Z,12.07
2019-03-26T14:30:57.636Z,9.47
2019-03-26T14:33:39.090Z,8.70
2019-03-26T14:36:18.415Z,9.80
2019-03-26T14:39:05.502Z,11.30
2019-03-26T14:41:41.511Z,12.30
2019-03-26T14:44:19.463Z,11.10
2019-03-26T14:47:07.917Z,14.67
2019-03-26T14:49:43.231Z,11.63
2019-03-26T14:52:23.678Z,8.87
2019-03-26T14:54:55.133Z,9.13
2019-03-26T14:57:41.778Z,9.10
2019-03-26T15:00:18.652Z,6.70
2019-03-26T15:02:50.684Z,10.50
2019-03-26T15:05:23.433Z,13.63
2019-03-26T15:07:59.159Z,11.97
2019-03-26T15:10:28.839Z,10.63
2019-03-26T15:12:58.311Z,11.50
2019-03-26T15:15:27.772Z,12.10
2019-03-26T15:17:57.228Z,9.10
2019-03-26T15:20:26.681Z,9.33
2019-03-26T15:22:58.034Z,8.63
2019-03-26T15:25:27.355Z,9.33
2019-03-26T15:27:56.810Z,8.00
2019-03-26T15:30:27.293Z,8.53
2019-03-26T15:32:56.791Z,7.73
2019-03-26T15:35:26.432Z,8.87
2019-03-26T15:37:55.891Z,7.13
2019-03-26T15:40:25.337Z,11.67
2019-03-26T15:42:54.882Z,11.03
2019-03-26T15:45:24.422Z,15.67
2019-03-26T15:47:54.173Z,11.23
2019-03-26T15:50:37.930Z,8.40
2019-03-26T15:53:09.160Z,7.23
2019-03-26T15:55:38.789Z,8.77
2019-03-26T15:58:08.321Z,13.40
2019-03-26T16:00:37.887Z,7.63
2019-03-26T16:03:07.378Z,9.90
2019-03-26T16:05:36.833Z,9.87
2019-03-26T16:08:06.361Z,13.97
2019-03-26T16:10:35.815Z,9.77
2019-03-26T16:13:05.714Z,10.03
2019-03-26T16:15:44.148Z,8.03
2019-03-26T16:18:08.229Z,10.77
2019-03-26T16:20:38.219Z,10.50
2019-03-26T16:23:07.674Z,11.27
2019-03-26T16:25:37.192Z,8.33
2019-03-26T16:28:06.716Z,16.23
2019-03-26T16:30:36.468Z,10.30
2019-03-26T16:33:06.106Z,7.97
2019-03-26T16:35:35.559Z,10.80
2019-03-26T16:38:05.255Z,7.43
2019-03-26T16:40:34.693Z,6.97
2019-03-26T16:43:04.179Z,11.87
2019-03-26T16:45:33.634Z,10.07
2019-03-26T16:48:03.418Z,9.20
2019-03-26T16:50:32.879Z,12.10
2019-03-26T16:53:02.526Z,10.60
2019-03-26T16:55:31.980Z,9.47
2019-03-26T16:58:01.445Z,12.93
2019-03-26T17:00:32.040Z,13.60
2019-03-26T17:03:01.708Z,7.97
2019-03-26T17:05:31.170Z,12.60
2019-03-26T17:08:00.620Z,18.73
2019-03-26T17:10:30.090Z,14.30
2019-03-26T17:12:59.519Z,13.97
2019-03-26T17:15:28.972Z,10.53
2019-03-26T17:17:58.593Z,11.60
2019-03-26T17:20:28.118Z,9.73
2019-03-26T17:22:57.737Z,10.93
2019-03-26T17:25:27.159Z,11.17
2019-03-26T17:27:56.905Z,11.33
2019-03-26T17:30:26.366Z,14.77
2019-03-26T17:32:56.831Z,14.10
2019-03-26T17:35:26.289Z,11.63
2019-03-26T17:37:59.969Z,12.83
2019-03-26T17:40:26.899Z,14.63
2019-03-26T17:42:56.377Z,13.90
2019-03-26T17:45:25.852Z,18.40
2019-03-26T17:47:55.579Z,12.77
2019-03-26T17:50:25.030Z,16.57
2019-03-26T17:52:54.511Z,14.30
2019-03-26T17:55:27.229Z,12.87
2019-03-26T17:57:56.899Z,18.67
2019-03-26T18:00:41.137Z,13.10
2019-03-26T18:03:10.688Z,14.87
2019-03-26T18:05:40.270Z,20.30
2019-03-26T18:08:09.905Z,21.43
2019-03-26T18:10:39.437Z,12.80
2019-03-26T18:13:08.918Z,16.47
2019-03-26T18:15:38.359Z,17.73
2019-03-26T18:18:09.459Z,14.20
2019-03-26T18:20:38.904Z,14.60
2019-03-26T18:23:08.373Z,13.03
2019-03-26T18:25:37.823Z,15.33
2019-03-26T18:28:07.463Z,14.27
2019-03-26T18:30:36.938Z,17.13
2019-03-26T18:33:06.446Z,15.47
2019-03-26T18:35:36.042Z,22.23
2019-03-26T18:38:05.518Z,13.67
2019-03-26T18:40:38.375Z,16.93
2019-03-26T18:43:07.835Z,17.53
2019-03-26T18:45:37.315Z,13.93
2019-03-26T18:48:06.867Z,17.23
2019-03-26T18:50:37.410Z,18.13
2019-03-26T18:53:06.952Z,16.37
2019-03-26T18:55:36.414Z,15.23
2019-03-26T18:58:05.913Z,17.83
2019-03-26T19:00:36.997Z,19.93
2019-03-26T19:03:07.104Z,16.47
2019-03-26T19:05:36.541Z,17.50
2019-03-26T19:08:06.155Z,15.67
2019-03-26T19:10:36.360Z,18.53
2019-03-26T19:13:18.574Z,18.00
2019-03-26T19:15:37.051Z,14.40
2019-03-26T19:18:06.545Z,15.27
2019-03-26T19:20:36.290Z,17.03
2019-03-26T19:23:05.870Z,18.77
2019-03-26T19:25:35.336Z,15.80
2019-03-26T19:28:04.784Z,17.43
2019-03-26T19:30:34.309Z,16.47
2019-03-26T19:33:04.811Z,17.00
2019-03-26T19:35:34.277Z,21.67
2019-03-26T19:38:03.748Z,22.50
2019-03-26T19:40:34.172Z,17.10
2019-03-26T19:43:10.939Z,16.03
2019-03-26T19:45:34.800Z,17.93
2019-03-26T19:48:04.279Z,21.40
2019-03-26T19:50:33.756Z,20.20
2019-03-26T19:53:03.217Z,20.57
2019-03-26T19:55:32.953Z,20.90
2019-03-26T19:58:02.430Z,18.37
2019-03-26T20:00:33.088Z,19.80
2019-03-26T20:03:02.868Z,19.30
2019-03-26T20:05:35.201Z,23.07
2019-03-26T20:08:03.523Z,28.13
2019-03-26T20:10:33.309Z,24.13
2019-03-26T20:13:02.766Z,32.00
2019-03-26T20:15:32.534Z,19.13
2019-03-26T20:18:02.249Z,18.00
2019-03-26T20:20:31.765Z,17.40
2019-03-26T20:23:01.235Z,23.30
2019-03-26T20:25:30.683Z,20.33
2019-03-26T20:28:00.136Z,20.37
2019-03-26T20:30:29.633Z,18.60
2019-03-26T20:32:59.101Z,17.33
2019-03-26T20:35:28.640Z,18.27
2019-03-26T20:37:58.119Z,18.07
2019-03-26T20:40:27.648Z,20.10
2019-03-26T20:42:58.383Z,19.83
2019-03-26T20:45:27.841Z,20.10
2019-03-26T20:47:57.382Z,17.53
2019-03-26T20:50:26.888Z,21.23
2019-03-26T20:52:56.346Z,24.50
2019-03-26T20:55:33.901Z,22.40
2019-03-26T20:58:04.003Z,23.87
2019-03-26T21:00:35.125Z,23.73
2019-03-26T21:03:04.830Z,20.87
2019-03-26T21:05:34.751Z,22.17
2019-03-26T21:08:04.849Z,20.90
2019-03-26T21:10:34.595Z,18.70
2019-03-26T21:13:04.048Z,21.17
2019-03-26T21:15:33.504Z,23.77
2019-03-26T21:18:02.958Z,18.50
2019-03-26T21:20:32.496Z,21.07
2019-03-26T21:23:01.903Z,18.40
2019-03-26T21:25:31.624Z,18.70
2019-03-26T21:28:01.095Z,18.67
2019-03-26T21:30:30.826Z,19.93
2019-03-26T21:33:00.294Z,19.00
2019-03-26T21:35:29.831Z,21.03
2019-03-26T21:37:59.313Z,18.90
2019-03-26T21:40:28.771Z,16.17
2019-03-26T21:42:58.216Z,16.43
2019-03-26T21:45:35.095Z,20.90
2019-03-26T21:48:05.448Z,17.23
2019-03-26T21:50:35.270Z,22.17
2019-03-26T21:53:04.980Z,16.40
2019-03-26T21:55:34.605Z,13.40
2019-03-26T21:58:04.299Z,14.77
2019-03-26T22:00:34.061Z,14.67
2019-03-26T22:03:03.517Z,14.33
2019-03-26T22:05:32.999Z,14.97
2019-03-26T22:08:02.447Z,22.13
2019-03-26T22:10:31.900Z,16.10
2019-03-26T22:13:01.369Z,21.40
2019-03-26T22:15:30.842Z,15.87
2019-03-26T22:18:00.288Z,16.47
2019-03-26T22:20:29.766Z,16.67
2019-03-26T22:22:59.305Z,20.90
2019-03-26T22:25:28.803Z,17.27
2019-03-26T22:27:58.258Z,17.07
2019-03-26T22:30:27.710Z,18.13
2019-03-26T22:32:57.174Z,17.47
2019-03-26T22:35:26.975Z,16.03
2019-03-26T22:37:56.433Z,15.90
2019-03-26T22:40:25.906Z,18.23
2019-03-26T22:42:55.362Z,15.03
2019-03-26T22:45:24.836Z,17.87
2019-03-26T22:47:54.307Z,22.33
2019-03-26T22:50:24.098Z,16.07
2019-03-26T22:52:53.566Z,17.87
2019-03-26T22:55:23.030Z,16.13
2019-03-26T22:57:52.472Z,18.10
2019-03-26T23:00:21.932Z,15.60
2019-03-26T23:02:51.389Z,18.93
2019-03-26T23:05:20.912Z,16.27
2019-03-26T23:07:50.365Z,16.03
2019-03-26T23:10:20.396Z,16.80
2019-03-26T23:12:49.844Z,21.83
2019-03-26T23:15:24.365Z,15.30
2019-03-26T23:17:53.816Z,14.57
2019-03-26T23:20:23.523Z,15.90
2019-03-26T23:22:52.964Z,14.93
2019-03-26T23:25:22.456Z,12.57
2019-03-26T23:27:53.517Z,11.33
2019-03-26T23:30:22.987Z,18.13
2019-03-26T23:32:52.426Z,17.07
2019-03-26T23:35:21.880Z,12.57
2019-03-26T23:37:51.341Z,11.57
2019-03-26T23:40:20.789Z,16.23
2019-03-26T23:42:50.235Z,10.67
2019-03-26T23:45:19.688Z,11.40
2019-03-26T23:47:49.145Z,10.10
2019-03-26T23:50:18.596Z,14.17
2019-03-26T23:52:48.028Z,11.73
2019-03-26T23:55:18.105Z,13.37
2019-03-26T23:57:47.925Z,9.27
